Time,TemperatureF,DewpointF,PressureIn,WindDirection,WindDirectionDegrees,WindSpeedMPH,WindSpeedGustMPH,Humidity,HourlyPrecipIn,Conditions,Clouds,dailyrainin,SoftwareType,DateUTC
2013-06-14 00:29:00,54.2,51.9,29.73,North,355,0.0,1.0,92,0.00,,---,0.00,VWS V14.00,2013-06-14 04:29:00,
2013-06-14 00:59:00,54.1,51.8,29.73,WSW,248,1.0,1.0,92,0.00,,---,0.00,VWS V14.00,2013-06-14 04:59:00,
2013-06-14 01:29:00,53.5,51.5,29.72,SW,230,0.0,0.0,93,0.00,,---,0.00,VWS V14.00,2013-06-14 05:29:00,
2013-06-14 01:59:00,52.9,51.2,29.72,NNE,17,0.0,0.0,94,0.00,,---,0.00,VWS V14.00,2013-06-14 05:59:00,
2013-06-14 02:29:00,53.7,51.1,29.72,South,184,0.0,1.0,91,0.00,,---,0.00,VWS V14.00,2013-06-14 06:29:00,
2013-06-14 02:59:00,52.9,50.6,29.71,SW,229,1.0,2.0,92,0.00,,---,0.00,VWS V14.00,2013-06-14 06:59:00,
2013-06-14 03:29:00,52.1,50.1,29.71,WSW,240,0.0,3.0,93,0.00,,---,0.00,VWS V14.00,2013-06-14 07:29:00,
2013-06-14 03:59:00,51.2,49.2,29.72,WSW,250,0.0,1.0,93,0.00,,---,0.00,VWS V14.00,2013-06-14 07:59:00,
2013-06-14 04:29:00,50.5,48.8,29.73,ENE,74,1.0,1.0,94,0.00,,---,0.00,VWS V14.00,2013-06-14 08:29:00,
2013-06-14 04:59:00,50.6,48.9,29.74,NNE,29,4.0,4.0,94,0.00,,---,0.00,VWS V14.00,2013-06-14 08:59:00,
2013-06-14 05:29:00,53.5,49.7,29.75,NNE,33,2.0,2.0,87,0.00,,---,0.00,VWS V14.00,2013-06-14 09:29:00,
2013-06-14 05:59:00,53.0,49.8,29.75,South,178,3.0,3.0,89,0.00,,---,0.00,VWS V14.00,2013-06-14 09:59:00,
2013-06-14 06:29:00,53.3,50.5,29.76,South,178,0.0,0.0,90,0.00,,---,0.00,VWS V14.00,2013-06-14 10:29:00,
2013-06-14 06:59:00,55.0,52.1,29.77,South,179,0.0,0.0,90,0.00,,---,0.00,VWS V14.00,2013-06-14 10:59:00,
2013-06-14 07:29:00,58.8,52.3,29.77,NE,39,3.0,5.0,79,0.00,,---,0.00,VWS V14.00,2013-06-14 11:29:00,
2013-06-14 07:59:00,62.6,53.8,29.78,NE,39,1.0,3.0,73,0.00,,---,0.00,VWS V14.00,2013-06-14 11:59:00,
2013-06-14 08:29:00,61.2,53.6,29.78,NE,42,0.0,3.0,76,0.00,,---,0.00,VWS V14.00,2013-06-14 12:29:00,
2013-06-14 08:59:00,61.9,53.9,29.79,NNE,30,0.0,1.0,75,0.00,,---,0.00,VWS V14.00,2013-06-14 12:59:00,
2013-06-14 09:29:00,64.1,53.7,29.79,NNE,18,1.0,2.0,69,0.00,,---,0.00,VWS V14.00,2013-06-14 13:29:00,
2013-06-14 09:59:00,68.4,55.3,29.79,NNE,16,4.0,5.0,63,0.00,,---,0.00,VWS V14.00,2013-06-14 13:59:00,
2013-06-14 10:29:00,71.1,55.6,29.78,East,82,0.0,2.0,58,0.00,,---,0.00,VWS V14.00,2013-06-14 14:29:00,
2013-06-14 10:59:00,73.2,54.5,29.78,NE,46,5.0,5.0,52,0.00,,---,0.00,VWS V14.00,2013-06-14 14:59:00,
2013-06-14 11:29:00,71.6,51.5,29.79,ESE,114,4.0,8.0,49,0.00,,---,0.00,VWS V14.00,2013-06-14 15:29:00,
2013-06-14 11:59:00,73.5,50.9,29.78,WNW,293,3.0,7.0,45,0.00,,---,0.00,VWS V14.00,2013-06-14 15:59:00,
2013-06-14 12:29:00,74.1,52.6,29.78,NE,40,3.0,8.0,47,0.00,,---,0.00,VWS V14.00,2013-06-14 16:29:00,
2013-06-14 12:59:00,74.8,50.8,29.78,NW,324,6.0,6.0,43,0.00,,---,0.00,VWS V14.00,2013-06-14 16:59:00,
2013-06-14 13:29:00,74.0,48.8,29.78,NE,35,1.0,4.0,41,0.00,,---,0.00,VWS V14.00,2013-06-14 17:29:00,
2013-06-14 13:59:00,75.0,47.7,29.78,WNW,296,1.0,3.0,38,0.00,,---,0.00,VWS V14.00,2013-06-14 17:59:00,
2013-06-14 14:29:00,76.1,48.0,29.78,NE,53,1.0,3.0,37,0.00,,---,0.00,VWS V14.00,2013-06-14 18:29:00,
2013-06-14 14:59:00,75.7,44.6,29.78,North,350,8.0,9.0,33,0.00,,---,0.00,VWS V14.00,2013-06-14 18:59:00,
2013-06-14 15:29:00,75.3,43.4,29.78,NW,310,3.0,7.0,32,0.00,,---,0.00,VWS V14.00,2013-06-14 19:29:00,
2013-06-14 15:59:00,74.6,42.0,29.77,West,259,1.0,4.0,31,0.00,,---,0.00,VWS V14.00,2013-06-14 19:59:00,
2013-06-14 16:29:00,73.9,43.8,29.78,South,177,2.0,7.0,34,0.00,,---,0.00,VWS V14.00,2013-06-14 20:29:00,
2013-06-14 16:59:00,71.9,38.0,29.79,ENE,65,4.0,7.0,29,0.00,,---,0.00,VWS V14.00,2013-06-14 20:59:00,
2013-06-14 17:29:00,70.5,40.8,29.80,WSW,243,7.0,7.0,34,0.00,,---,0.00,VWS V14.00,2013-06-14 21:29:00,
2013-06-14 17:59:00,69.4,39.8,29.80,ENE,74,1.0,4.0,34,0.00,,---,0.00,VWS V14.00,2013-06-14 21:59:00,
2013-06-14 18:29:00,68.0,36.3,29.81,SE,124,2.0,6.0,31,0.00,,---,0.00,VWS V14.00,2013-06-14 22:29:00,
2013-06-14 18:59:00,66.7,35.1,29.81,NE,45,1.0,3.0,31,0.00,,---,0.00,VWS V14.00,2013-06-14 22:59:00,
2013-06-14 19:29:00,64.9,35.1,29.82,NE,42,1.0,4.0,33,0.00,,---,0.00,VWS V14.00,2013-06-14 23:29:00,
2013-06-14 19:59:00,63.8,37.0,29.83,North,349,2.0,3.0,37,0.00,,---,0.00,VWS V14.00,2013-06-14 23:59:00,
2013-06-14 20:29:00,62.0,37.4,29.83,North,349,1.0,1.0,40,0.00,,---,0.00,VWS V14.00,2013-06-15 00:29:00,
2013-06-14 20:59:00,60.1,37.0,29.83,NNW,339,0.0,1.0,42,0.00,,---,0.00,VWS V14.00,2013-06-15 00:59:00,
2013-06-14 21:29:00,58.4,38.3,29.85,NW,309,0.0,0.0,47,0.00,,---,0.00,VWS V14.00,2013-06-15 01:29:00,
2013-06-14 21:59:00,56.6,41.1,29.86,North,355,0.0,0.0,56,0.00,,---,0.00,VWS V14.00,2013-06-15 01:59:00,
2013-06-14 22:29:00,55.6,39.7,29.86,North,5,1.0,3.0,55,0.00,,---,0.00,VWS V14.00,2013-06-15 02:29:00,
2013-06-14 22:59:00,55.9,40.0,29.86,NW,306,1.0,3.0,55,0.00,,---,0.00,VWS V14.00,2013-06-15 02:59:00,
2013-06-14 23:29:00,55.6,40.2,29.86,NNW,338,1.0,2.0,56,0.00,,---,0.00,VWS V14.00,2013-06-15 03:29:00,
2013-06-14 23:59:00,53.8,39.8,29.87,North,5,0.0,1.0,59,0.00,,---,0.00,VWS V14.00,2013-06-15 03:59:00,